Time;durP1;ratioP1;P1;durP2;ratioP2;P2;SDS_P1;SDS_P2;PMS_P1;PMS_P2;Temp;Humidity;BMP_temperature;BMP_pressure;BME280_temperature;BME280_humidity;BME280_pressure;Samples;Min_cycle;Max_cycle;Signal;HPM_P1;HPM_P2
2022/10/20 00:00:36;;;;;;;28.35;15.00;;;;;;;7.44;100.00;101718.22;5035269;28;20080;-77
2022/10/20 00:03:01;;;;;;;33.90;14.75;;;;;;;7.51;100.00;101727.41;5034972;28;20029;-76
2022/10/20 00:05:26;;;;;;;25.23;15.13;;;;;;;7.63;100.00;101749.25;5034899;28;20025;-77
2022/10/20 00:07:52;;;;;;;25.83;14.77;;;;;;;7.34;100.00;101686.88;5034853;28;20045;-77
2022/10/20 00:10:17;;;;;;;28.58;14.50;;;;;;;7.56;100.00;101715.19;5034718;28;20069;-77
2022/10/20 00:12:42;;;;;;;24.38;13.63;;;;;;;7.57;100.00;101718.59;5034628;28;20175;-77
2022/10/20 00:15:08;;;;;;;27.42;14.30;;;;;;;7.58;100.00;101713.44;5034621;28;20056;-76
2022/10/20 00:17:33;;;;;;;23.02;14.82;;;;;;;7.49;100.00;101693.22;5034827;28;20028;-77
2022/10/20 00:19:59;;;;;;;27.52;14.07;;;;;;;7.58;100.00;101710.88;5034571;28;20488;-77
2022/10/20 00:22:24;;;;;;;24.50;14.15;;;;;;;7.50;100.00;101687.19;5034657;28;20033;-77
2022/10/20 00:24:51;;;;;;;24.02;14.30;;;;;;;7.62;100.00;101701.31;5034495;28;20101;-77
2022/10/20 00:27:16;;;;;;;28.02;15.13;;;;;;;7.45;100.00;101663.34;5034325;28;20105;-76
2022/10/20 00:29:41;;;;;;;31.67;15.05;;;;;;;7.49;100.00;101685.50;5034314;28;20040;-76
2022/10/20 00:32:06;;;;;;;27.20;15.32;;;;;;;7.60;100.00;101696.22;5034577;28;20417;-77
2022/10/20 00:34:32;;;;;;;28.13;14.90;;;;;;;7.60;100.00;101692.81;5034501;28;20025;-77
2022/10/20 00:36:57;;;;;;;30.40;15.32;;;;;;;7.60;100.00;101706.50;5034309;28;20071;-77
2022/10/20 00:39:23;;;;;;;28.45;14.63;;;;;;;7.59;100.00;101698.84;5033952;28;20465;-77
2022/10/20 00:41:48;;;;;;;27.25;15.27;;;;;;;7.59;100.00;101696.28;5033351;28;20065;-76
2022/10/20 00:44:50;;;;;;;28.33;14.60;;;;;;;7.56;100.00;101702.34;5034123;28;20188;-77
2022/10/20 00:47:54;;;;;;;26.00;15.63;;;;;;;7.46;100.00;101672.75;5034086;28;20025;-76
2022/10/20 00:50:22;;;;;;;24.30;14.20;;;;;;;7.49;100.00;101680.38;5033927;28;20029;-76
2022/10/20 00:52:48;;;;;;;25.88;15.07;;;;;;;7.51;100.00;101677.72;5034067;28;20053;-77
2022/10/20 00:55:19;;;;;;;28.27;15.35;;;;;;;7.39;100.00;101659.31;5034150;28;20495;-76
2022/10/20 00:57:48;;;;;;;34.22;16.02;;;;;;;7.33;100.00;101646.66;5033843;28;20066;-76
2022/10/20 01:00:15;;;;;;;33.13;18.05;;;;;;;7.38;100.00;101659.34;5033828;28;20033;-77
2022/10/20 01:02:40;;;;;;;28.00;16.20;;;;;;;7.44;100.00;101666.81;5033902;28;20077;-76
2022/10/20 01:05:06;;;;;;;29.05;15.93;;;;;;;7.29;100.00;101641.72;5033595;28;20025;-77
2022/10/20 01:07:32;;;;;;;28.55;15.75;;;;;;;7.39;100.00;101659.31;5033589;28;20029;-77
2022/10/20 01:09:57;;;;;;;28.73;15.88;;;;;;;7.37;100.00;101647.38;5033778;28;20108;-77
2022/10/20 01:12:47;;;;;;;31.40;16.10;;;;;;;7.31;100.00;101647.63;5033612;28;20029;-77
2022/10/20 01:15:28;;;;;;;32.40;16.25;;;;;;;7.38;100.00;101664.50;5015790;28;20192;-76
2022/10/20 01:17:59;;;;;;;29.67;17.17;;;;;;;7.41;100.00;101651.53;5033249;28;20488;-77
2022/10/20 01:21:03;;;;;;;34.30;17.52;;;;;;;7.40;100.00;101639.59;5033769;28;20017;-76
2022/10/20 01:24:00;;;;;;;28.45;16.73;;;;;;;7.36;100.00;101641.41;5015909;28;20034;-73
2022/10/20 01:26:50;;;;;;;32.33;16.77;;;;;;;7.36;100.00;101630.28;5015379;28;20032;-77
2022/10/20 01:29:27;;;;;;;30.67;17.25;;;;;;;7.36;100.00;101617.44;5033423;28;20056;-77
2022/10/20 01:32:04;;;;;;;29.10;16.55;;;;;;;7.34;100.00;101611.53;5033351;28;20115;-77
2022/10/20 01:34:38;;;;;;;34.00;17.15;;;;;;;7.33;100.00;101597.00;5033259;28;20100;-76
2022/10/20 01:37:22;;;;;;;39.90;19.13;;;;;;;7.29;100.00;101582.63;5033243;28;20488;-77
2022/10/20 01:39:52;;;;;;;36.67;17.15;;;;;;;7.36;100.00;101599.47;5033144;28;20021;-77
2022/10/20 01:42:24;;;;;;;34.08;17.48;;;;;;;7.31;100.00;101580.81;5033038;28;20529;-77
2022/10/20 01:44:54;;;;;;;32.38;17.75;;;;;;;7.31;100.00;101589.38;5033146;28;20458;-77
2022/10/20 01:47:23;;;;;;;33.47;17.80;;;;;;;7.37;100.00;101589.13;5032930;28;20079;-77
2022/10/20 01:49:50;;;;;;;38.90;18.63;;;;;;;7.37;100.00;101583.16;5033136;28;20029;-77
2022/10/20 01:52:16;;;;;;;31.77;17.17;;;;;;;7.38;100.00;101577.97;5032810;28;20033;-76
2022/10/20 01:54:41;;;;;;;30.40;17.35;;;;;;;7.23;100.00;101555.41;5033079;28;20078;-77
2022/10/20 01:57:41;;;;;;;32.33;18.02;;;;;;;7.36;100.00;101590.00;5033045;28;20478;-77
2022/10/20 02:00:12;;;;;;;32.22;18.00;;;;;;;7.29;100.00;101593.72;5032955;28;20025;-77
2022/10/20 02:02:46;;;;;;;32.40;17.08;;;;;;;7.32;100.00;101603.03;5033079;28;20033;-77
2022/10/20 02:05:36;;;;;;;34.60;18.50;;;;;;;7.29;100.00;101601.44;5033102;28;20033;-77
2022/10/20 02:08:38;;;;;;;33.40;17.92;;;;;;;7.27;100.00;101599.78;5033002;28;20022;-77
2022/10/20 02:11:07;;;;;;;34.53;18.73;;;;;;;7.20;100.00;101586.34;5032939;28;20022;-77
2022/10/20 02:13:35;;;;;;;34.20;18.30;;;;;;;7.16;100.00;101567.63;5014592;28;20034;-77
2022/10/20 02:16:08;;;;;;;36.00;18.00;;;;;;;7.23;100.00;101570.00;5032769;28;20029;-77
2022/10/20 02:18:40;;;;;;;34.65;18.65;;;;;;;7.18;100.00;101568.44;5033013;28;20104;-77
2022/10/20 02:21:06;;;;;;;36.75;17.88;;;;;;;7.16;100.00;101566.81;5032790;28;20053;-77
2022/10/20 02:23:36;;;;;;;36.13;18.42;;;;;;;7.20;100.00;101573.50;5032974;28;20477;-77
2022/10/20 02:26:04;;;;;;;37.30;18.67;;;;;;;7.20;100.00;101576.09;5032913;28;20060;-77
2022/10/20 02:28:32;;;;;;;37.13;19.05;;;;;;;6.95;100.00;101532.47;5032560;28;20025;-77
2022/10/20 02:30:58;;;;;;;33.75;19.02;;;;;;;7.17;100.00;101559.03;5032745;28;20029;-77
2022/10/20 02:33:25;;;;;;;38.10;19.45;;;;;;;7.05;100.00;101526.09;5032645;28;20469;-77
2022/10/20 02:35:56;;;;;;;37.10;19.05;;;;;;;7.18;100.00;101553.03;5032812;28;20033;-77
2022/10/20 02:38:21;;;;;;;33.90;18.77;;;;;;;7.04;100.00;101521.03;5032728;28;20029;-77
2022/10/20 02:40:46;;;;;;;39.05;20.00;;;;;;;7.13;100.00;101536.94;5032654;28;20029;-77
2022/10/20 02:43:12;;;;;;;42.03;19.27;;;;;;;7.14;100.00;101533.47;5032408;28;20040;-77
2022/10/20 02:45:38;;;;;;;42.00;21.50;;;;;;;7.17;100.00;101523.06;5032570;28;20022;-77
2022/10/20 02:48:04;;;;;;;37.13;20.27;;;;;;;7.18;100.00;101523.94;5032523;28;20420;-77
2022/10/20 02:50:29;;;;;;;40.85;20.80;;;;;;;7.14;100.00;101501.81;5032521;28;20405;-77
2022/10/20 02:52:54;;;;;;;37.17;20.80;;;;;;;7.24;100.00;101508.28;5032563;28;20466;-77
2022/10/20 02:55:19;;;;;;;39.08;20.77;;;;;;;7.27;100.00;101497.03;5032422;28;20021;-77
2022/10/20 02:57:45;;;;;;;40.70;21.50;;;;;;;7.24;100.00;101486.88;5032214;28;20021;-77
2022/10/20 03:00:11;;;;;;;39.17;20.60;;;;;;;7.15;100.00;101470.94;5032599;28;20108;-77
2022/10/20 03:02:36;;;;;;;41.08;20.92;;;;;;;7.21;100.00;101467.31;5032423;28;20036;-77
2022/10/20 03:05:02;;;;;;;42.50;21.30;;;;;;;7.31;100.00;101476.31;5035623;28;20025;-77
2022/10/20 03:07:27;;;;;;;43.30;22.58;;;;;;;7.26;100.00;101456.84;5035951;28;20033;-77
2022/10/20 03:09:52;;;;;;;45.67;22.98;;;;;;;7.37;100.00;101464.94;5035924;28;20056;-77
2022/10/20 03:12:18;;;;;;;43.05;22.60;;;;;;;7.38;100.00;101459.78;5035777;28;20036;-77
2022/10/20 03:14:44;;;;;;;43.30;21.35;;;;;;;7.38;100.00;101457.22;5035597;28;20171;-77
2022/10/20 03:17:09;;;;;;;42.17;22.88;;;;;;;7.38;100.00;101458.94;5035824;28;20025;-77
2022/10/20 03:19:35;;;;;;;40.92;21.98;;;;;;;7.39;100.00;101460.63;5035787;28;20025;-77
2022/10/20 03:22:00;;;;;;;42.78;22.92;;;;;;;7.38;100.00;101453.81;5035589;28;20469;-77
2022/10/20 03:24:26;;;;;;;43.30;22.83;;;;;;;7.38;100.00;101446.94;5035740;28;20033;-77
2022/10/20 03:26:51;;;;;;;41.72;23.10;;;;;;;7.44;100.00;101436.38;5035503;28;20030;-76
2022/10/20 03:29:16;;;;;;;47.38;23.75;;;;;;;7.40;100.00;101418.59;5035295;28;20029;-76
2022/10/20 03:31:42;;;;;;;49.13;24.00;;;;;;;7.42;100.00;101427.91;5035450;28;20037;-77
2022/10/20 03:34:07;;;;;;;45.35;22.55;;;;;;;7.51;100.00;101428.44;5035550;28;20033;-77
2022/10/20 03:36:32;;;;;;;46.47;23.65;;;;;;;7.43;100.00;101421.88;5035483;28;20034;-77
2022/10/20 03:38:58;;;;;;;43.50;23.75;;;;;;;7.54;100.00;101420.59;5035269;28;20025;-77
2022/10/20 03:41:23;;;;;;;45.45;24.23;;;;;;;7.28;100.00;101373.69;5035502;28;20108;-77
2022/10/20 03:43:49;;;;;;;48.55;25.02;;;;;;;7.53;100.00;101413.78;5017638;28;20080;-77
2022/10/20 03:46:14;;;;;;;45.20;23.98;;;;;;;7.61;100.00;101420.28;5035325;28;20121;-77
2022/10/20 03:48:40;;;;;;;52.33;23.88;;;;;;;7.62;100.00;101424.53;5035266;28;20021;-77
2022/10/20 03:51:06;;;;;;;48.47;24.05;;;;;;;7.63;100.00;101428.78;5035253;28;20033;-77
2022/10/20 03:53:32;;;;;;;46.15;25.17;;;;;;;7.64;100.00;101425.28;5034945;28;20029;-77
2022/10/20 03:55:57;;;;;;;46.42;23.85;;;;;;;7.62;100.00;101411.69;5035163;28;20047;-78
2022/10/20 03:58:23;;;;;;;49.53;24.00;;;;;;;7.68;100.00;101410.59;5035289;28;20037;-77
2022/10/20 04:00:48;;;;;;;44.20;23.88;;;;;;;7.52;100.00;101376.16;5035023;28;20025;-77
2022/10/20 04:03:14;;;;;;;40.28;22.83;;;;;;;7.69;100.00;101402.81;5034996;28;20033;-79
2022/10/20 04:05:39;;;;;;;45.78;23.25;;;;;;;7.74;100.00;101402.63;5034873;28;20481;-78
2022/10/20 04:08:05;;;;;;;47.42;23.98;;;;;;;7.75;100.00;101399.16;5034727;28;20093;-77
2022/10/20 04:10:30;;;;;;;53.10;23.73;;;;;;;7.73;100.00;101400.94;5034856;28;20021;-76
2022/10/20 04:12:57;;;;;;;56.33;25.00;;;;;;;7.78;100.00;101409.31;5034712;28;20076;-77
2022/10/20 04:15:22;;;;;;;44.38;23.85;;;;;;;7.57;100.00;101371.63;5033924;28;20577;-77
2022/10/20 04:17:48;;;;;;;50.67;25.13;;;;;;;7.81;100.00;101403.22;5034410;28;20116;-77
2022/10/20 04:20:13;;;;;;;42.35;23.35;;;;;;;7.74;100.00;101389.75;5034714;28;20052;-77
2022/10/20 04:22:39;;;;;;;50.45;23.63;;;;;;;7.83;100.00;101399.66;5034232;28;20030;-77
2022/10/20 04:25:05;;;;;;;48.60;25.30;;;;;;;7.79;100.00;101374.16;5034508;28;20473;-77
2022/10/20 04:27:30;;;;;;;45.13;23.63;;;;;;;7.87;100.00;101369.53;5034272;28;20079;-77
2022/10/20 04:29:55;;;;;;;45.65;23.38;;;;;;;7.81;100.00;101352.63;5034404;28;20025;-77
2022/10/20 04:32:21;;;;;;;46.50;23.65;;;;;;;7.92;100.00;101360.69;5034523;28;20091;-78
2022/10/20 04:34:46;;;;;;;44.25;23.40;;;;;;;7.94;100.00;101355.47;5034114;28;20022;-76
2022/10/20 04:37:11;;;;;;;49.90;24.05;;;;;;;7.95;100.00;101357.16;5034211;28;20029;-76
2022/10/20 04:39:37;;;;;;;46.65;24.15;;;;;;;7.83;100.00;101342.25;5034066;28;20033;-78
2022/10/20 04:42:02;;;;;;;46.20;23.90;;;;;;;7.76;100.00;101332.22;5034376;28;20029;-78
2022/10/20 04:44:27;;;;;;;48.45;24.23;;;;;;;7.87;100.00;101338.69;5034273;28;20444;-78
2022/10/20 04:46:53;;;;;;;43.63;24.45;;;;;;;7.97;100.00;101347.66;5033945;28;20021;-79
2022/10/20 04:49:19;;;;;;;45.90;23.60;;;;;;;7.95;100.00;101331.44;5033927;28;20485;-78
2022/10/20 04:51:45;;;;;;;50.58;24.52;;;;;;;7.92;100.00;101329.84;5034034;28;20060;-78
2022/10/20 04:54:10;;;;;;;45.80;25.10;;;;;;;8.04;100.00;101347.28;5033828;28;20017;-78
2022/10/20 04:56:35;;;;;;;46.45;24.08;;;;;;;8.05;100.00;101343.00;5033945;28;20034;-78
2022/10/20 04:59:01;;;;;;;46.70;23.80;;;;;;;8.08;100.00;101331.75;5033816;28;20022;-76
2022/10/20 05:01:28;;;;;;;47.83;24.73;;;;;;;7.99;100.00;101313.25;5033505;28;20017;-78
2022/10/20 05:03:54;;;;;;;47.70;24.65;;;;;;;8.07;100.00;101324.94;5033503;28;20021;-78
2022/10/20 05:06:21;;;;;;;47.13;24.20;;;;;;;8.07;100.00;101320.63;5033805;28;20025;-78
2022/10/20 05:08:50;;;;;;;46.45;24.00;;;;;;;8.08;100.00;101317.16;5033690;28;20025;-78
2022/10/20 05:11:16;;;;;;;48.40;24.50;;;;;;;8.09;100.00;101310.28;5033852;28;20079;-76
2022/10/20 05:13:42;;;;;;;46.97;24.33;;;;;;;8.07;100.00;101310.34;5033168;28;20351;-76
2022/10/20 05:16:08;;;;;;;46.88;24.35;;;;;;;8.08;100.00;101309.44;5033314;28;20032;-76
2022/10/20 05:18:34;;;;;;;46.15;24.05;;;;;;;8.10;100.00;101317.06;5033170;28;20017;-76
2022/10/20 05:21:07;;;;;;;50.25;25.42;;;;;;;8.10;100.00;101342.81;5033516;28;20109;-76
2022/10/20 05:23:32;;;;;;;49.97;24.17;;;;;;;8.03;100.00;101331.94;5033236;28;20021;-76
2022/10/20 05:26:01;;;;;;;48.10;25.33;;;;;;;7.98;100.00;101309.00;5032519;28;20025;-76
2022/10/20 05:28:26;;;;;;;47.20;24.58;;;;;;;8.07;100.00;101309.50;5033222;28;20109;-75
2022/10/20 05:30:52;;;;;;;51.08;24.77;;;;;;;7.92;100.00;101270.69;5032983;28;20025;-77
2022/10/20 05:33:17;;;;;;;48.28;24.95;;;;;;;8.07;100.00;101283.78;5033348;28;20452;-77
2022/10/20 05:35:42;;;;;;;49.05;25.15;;;;;;;7.94;100.00;101280.91;5033107;28;20025;-76
2022/10/20 05:38:08;;;;;;;55.45;24.45;;;;;;;8.04;100.00;101320.75;5033145;28;20025;-77
2022/10/20 05:40:33;;;;;;;47.05;24.95;;;;;;;8.01;100.00;101308.03;5032930;28;20099;-76
2022/10/20 05:42:58;;;;;;;48.17;25.17;;;;;;;7.97;100.00;101298.78;5033165;28;20060;-76
2022/10/20 05:45:24;;;;;;;49.17;24.90;;;;;;;7.89;100.00;101300.88;5033142;28;20113;-77
2022/10/20 05:47:49;;;;;;;52.53;25.88;;;;;;;7.97;100.00;101303.94;5032969;28;20392;-77
2022/10/20 05:50:14;;;;;;;52.05;26.33;;;;;;;7.92;100.00;101282.72;5032981;28;20418;-76
2022/10/20 05:52:40;;;;;;;50.20;25.25;;;;;;;7.88;100.00;101268.34;5032922;28;20033;-77
2022/10/20 05:55:06;;;;;;;52.97;25.60;;;;;;;7.96;100.00;101284.25;5032801;28;20100;-76
2022/10/20 05:57:31;;;;;;;51.53;26.83;;;;;;;7.72;100.00;101239.91;5032957;28;20104;-76
2022/10/20 05:59:56;;;;;;;56.22;26.88;;;;;;;8.05;100.00;101279.53;5032717;28;20018;-76
2022/10/20 06:02:21;;;;;;;54.40;26.40;;;;;;;8.15;100.00;101299.69;5032772;28;20026;-77
2022/10/20 06:04:47;;;;;;;53.80;26.92;;;;;;;8.22;100.00;101311.38;5033011;28;20080;-76
2022/10/20 06:07:12;;;;;;;57.33;28.77;;;;;;;8.27;100.00;101307.69;5032892;28;20037;-77
2022/10/20 06:09:38;;;;;;;56.90;27.13;;;;;;;8.29;100.00;101313.59;5032787;28;20533;-76
2022/10/20 06:12:04;;;;;;;56.20;28.20;;;;;;;8.35;100.00;101307.34;5032605;28;20025;-77
2022/10/20 06:14:30;;;;;;;59.40;29.52;;;;;;;8.40;100.00;101315.72;5032564;28;20107;-76
2022/10/20 06:16:55;;;;;;;60.78;28.77;;;;;;;8.33;100.00;101289.38;5032737;28;20049;-74
2022/10/20 06:19:22;;;;;;;59.38;28.10;;;;;;;8.41;100.00;101291.66;5032702;28;20432;-76
2022/10/20 06:21:47;;;;;;;63.30;29.30;;;;;;;8.42;100.00;101284.75;5014910;28;20389;-77
2022/10/20 06:24:12;;;;;;;59.22;29.60;;;;;;;8.56;100.00;101284.97;5014846;28;20038;-77
2022/10/20 06:26:38;;;;;;;68.22;30.13;;;;;;;8.68;100.00;101299.81;5032532;28;20351;-76
2022/10/20 06:29:11;;;;;;;59.10;28.92;;;;;;;8.66;100.00;101296.50;5032538;28;20029;-76
2022/10/20 06:31:42;;;;;;;51.72;26.30;;;;;;;8.76;100.00;101300.28;5032379;28;20029;-76
2022/10/20 06:34:12;;;;;;;51.97;27.63;;;;;;;8.69;100.00;101288.59;5032841;28;20021;-78
2022/10/20 06:36:38;;;;;;;55.20;28.90;;;;;;;8.86;100.00;101316.13;5031237;28;20168;-73
2022/10/20 06:39:05;;;;;;;57.28;28.55;;;;;;;8.92;100.00;101310.69;5036182;28;20453;-75
2022/10/20 06:41:32;;;;;;;59.67;28.63;;;;;;;8.91;100.00;101299.53;5036292;28;20030;-78
2022/10/20 06:43:58;;;;;;;57.75;27.75;;;;;;;9.01;100.00;101304.25;5036381;28;20033;-77
2022/10/20 06:46:28;;;;;;;56.70;28.00;;;;;;;9.07;100.00;101303.97;5036559;28;20045;-74
2022/10/20 06:48:53;;;;;;;52.50;26.13;;;;;;;9.12;100.00;101289.09;5036375;28;20032;-77
2022/10/20 06:51:23;;;;;;;51.08;26.58;;;;;;;9.14;100.00;101282.97;5036492;28;20025;-77
2022/10/20 06:53:49;;;;;;;49.75;25.33;;;;;;;9.24;100.00;101277.34;5036232;28;20075;-77
2022/10/20 06:56:17;;;;;;;54.60;26.42;;;;;;;9.02;100.00;101242.34;5035936;28;20034;-77
2022/10/20 06:58:46;;;;;;;52.63;27.20;;;;;;;9.07;100.00;101245.53;5033360;28;20371;-75
2022/10/20 07:01:13;;;;;;;52.97;28.20;;;;;;;9.37;100.00;101286.13;5022667;28;20022;-77
2022/10/20 07:03:39;;;;;;;55.28;26.17;;;;;;;9.42;100.00;101274.66;5035957;28;20366;-76
2022/10/20 07:06:06;;;;;;;46.65;25.15;;;;;;;9.46;100.00;101270.22;5036035;28;20071;-76
2022/10/20 07:08:33;;;;;;;48.05;25.65;;;;;;;9.16;100.00;101219.31;5036084;28;20025;-77
2022/10/20 07:11:07;;;;;;;45.45;25.35;;;;;;;9.43;100.00;101245.41;5035812;28;20017;-77
2022/10/20 07:13:34;;;;;;;46.60;26.55;;;;;;;9.63;100.00;101264.16;5035712;28;20029;-76
2022/10/20 07:16:00;;;;;;;46.50;25.23;;;;;;;9.55;100.00;101243.13;5036038;28;20029;-77
2022/10/20 07:18:27;;;;;;;44.10;24.10;;;;;;;9.75;100.00;101266.13;5035730;28;20542;-76
2022/10/20 07:21:01;;;;;;;48.75;24.90;;;;;;;9.80;100.00;101273.59;5035848;28;20022;-76
2022/10/20 07:23:28;;;;;;;47.75;26.05;;;;;;;9.83;100.00;101281.16;5035401;28;20072;-77
2022/10/20 07:26:00;;;;;;;45.90;25.88;;;;;;;9.90;100.00;101279.94;5035870;28;20025;-77
2022/10/20 07:28:26;;;;;;;48.55;26.02;;;;;;;9.94;100.00;101277.13;5035607;28;20033;-76
2022/10/20 07:30:51;;;;;;;45.50;25.23;;;;;;;9.97;100.00;101276.97;5035693;28;20028;-77
2022/10/20 07:33:16;;;;;;;45.50;24.63;;;;;;;9.84;100.00;101257.91;5035542;28;20112;-77
2022/10/20 07:35:42;;;;;;;50.08;25.48;;;;;;;10.09;100.00;101280.63;5035462;28;20021;-77
2022/10/20 07:38:07;;;;;;;47.75;25.15;;;;;;;10.14;100.00;101278.66;5017418;28;20077;-75
2022/10/20 07:40:32;;;;;;;52.63;26.00;;;;;;;10.19;100.00;101281.78;5017328;28;20033;-76
2022/10/20 07:42:57;;;;;;;46.35;25.83;;;;;;;10.14;100.00;101272.66;5035436;28;20114;-77
2022/10/20 07:45:23;;;;;;;49.75;25.38;;;;;;;10.31;100.00;101286.31;5035394;28;20021;-77
2022/10/20 07:47:48;;;;;;;51.55;27.48;;;;;;;10.36;100.00;101283.50;5017383;28;20048;-75
2022/10/20 07:50:14;;;;;;;45.40;24.45;;;;;;;10.45;100.00;101275.25;5034562;28;20022;-76
2022/10/20 07:52:40;;;;;;;48.40;25.35;;;;;;;10.57;100.00;101284.06;5035202;28;20029;-79
2022/10/20 07:55:06;;;;;;;43.90;25.95;;;;;;;10.67;100.00;101284.38;5017340;28;20124;-77
2022/10/20 07:57:31;;;;;;;46.05;25.05;;;;;;;10.63;100.00;101269.06;5035053;28;20125;-78
2022/10/20 07:59:56;;;;;;;41.47;23.45;;;;;;;10.83;100.00;101283.44;5034980;28;20017;-76
2022/10/20 08:02:22;;;;;;;45.10;24.85;;;;;;;10.66;100.00;101246.56;5035056;28;20445;-77
2022/10/20 08:04:48;;;;;;;41.90;24.65;;;;;;;10.89;100.00;101269.31;5034926;28;20119;-74
2022/10/20 08:07:13;;;;;;;48.83;25.33;;;;;;;11.05;100.00;101285.63;5034863;28;20053;-74
2022/10/20 08:09:39;;;;;;;42.25;24.33;;;;;;;11.10;100.00;101277.59;5034831;28;20032;-75
2022/10/20 08:12:04;;;;;;;43.33;25.60;;;;;;;11.04;100.00;101250.38;5034919;28;20021;-74
2022/10/20 08:14:35;;;;;;;47.92;25.38;;;;;;;11.18;100.00;101268.47;5025637;28;20076;-75
2022/10/20 08:17:01;;;;;;;41.15;23.33;;;;;;;11.22;100.00;101257.97;5015107;28;20025;-76
2022/10/20 08:19:27;;;;;;;49.65;25.33;;;;;;;11.24;100.00;101269.88;5014558;28;20112;-74
2022/10/20 08:21:52;;;;;;;45.88;24.25;;;;;;;11.26;100.00;101270.63;5014797;28;20105;-77
2022/10/20 08:24:18;;;;;;;49.95;26.08;;;;;;;11.29;100.00;101259.25;5014689;28;20030;-73
2022/10/20 08:26:43;;;;;;;41.88;24.92;;;;;;;11.35;100.00;101254.56;5014872;28;20478;-77
2022/10/20 08:29:09;;;;;;;46.13;25.13;;;;;;;11.51;100.00;101251.09;5015006;28;20026;-76
2022/10/20 08:31:34;;;;;;;46.45;24.45;;;;;;;11.54;100.00;101245.72;5014771;28;20045;-75
2022/10/20 08:34:00;;;;;;;47.05;25.08;;;;;;;11.72;100.00;101260.94;5014448;28;20053;-77
2022/10/20 08:36:27;;;;;;;42.65;24.10;;;;;;;11.80;100.00;101241.56;5014643;28;20097;-76
2022/10/20 08:38:53;;;;;;;44.72;25.92;;;;;;;11.96;100.00;101262.97;5014533;28;20022;-77
2022/10/20 08:41:25;;;;;;;47.85;25.63;;;;;;;11.86;100.00;101231.66;5014239;28;20176;-77
2022/10/20 08:43:53;;;;;;;45.85;24.55;;;;;;;11.86;100.00;101210.97;5014407;28;20030;-74
2022/10/20 08:46:23;;;;;;;42.28;25.25;;;;;;;12.21;100.00;101267.47;5014428;28;20068;-74
2022/10/20 08:48:49;;;;;;;47.78;26.27;;;;;;;12.24;100.00;101260.34;5014299;28;20077;-76
2022/10/20 08:51:21;;;;;;;45.08;24.73;;;;;;;12.33;100.00;101264.13;5014290;28;20030;-75
2022/10/20 08:53:49;;;;;;;41.17;23.63;;;;;;;12.16;100.00;101215.16;5014257;28;20030;-76
2022/10/20 08:56:15;;;;;;;49.05;25.75;;;;;;;12.52;100.00;101243.06;5014512;28;20108;-76
2022/10/20 08:58:45;;;;;;;47.03;24.85;;;;;;;12.73;100.00;101251.19;5014383;28;20075;-76
2022/10/20 09:01:19;;;;;;;42.67;23.83;;;;;;;12.93;100.00;101248.13;5013208;28;20030;-75
2022/10/20 09:03:57;;;;;;;43.90;23.85;;;;;;;13.06;100.00;101238.59;5014131;28;20104;-74
2022/10/20 09:06:23;;;;;;;43.65;24.88;;;;;;;13.16;100.00;101231.03;5013809;28;20026;-77
2022/10/20 09:08:49;;;;;;;43.17;24.70;;;;;;;13.13;99.97;101228.66;4996839;28;20053;-76
2022/10/20 09:11:22;;;;;;;45.92;23.95;;;;;;;13.15;99.44;101208.63;5013932;28;20030;-75
2022/10/20 09:13:47;;;;;;;44.20;24.20;;;;;;;13.20;98.99;101204.81;5017325;28;20042;-77
2022/10/20 09:16:22;;;;;;;47.13;24.33;;;;;;;13.38;98.93;101223.50;5033604;28;20041;-76
2022/10/20 09:18:54;;;;;;;40.25;22.95;;;;;;;13.45;98.68;101216.94;5033516;28;20499;-76
2022/10/20 09:21:21;;;;;;;42.80;23.98;;;;;;;13.59;98.41;101226.38;5033327;28;20481;-75
2022/10/20 09:23:53;;;;;;;44.15;25.02;;;;;;;13.67;97.82;101231.03;5033555;28;20103;-76
2022/10/20 09:26:31;;;;;;;38.92;23.67;;;;;;;13.69;97.30;101232.59;5033655;28;20036;-76
2022/10/20 09:29:12;;;;;;;45.92;24.63;;;;;;;13.62;98.50;101223.56;5033549;28;20493;-78
2022/10/20 09:31:44;;;;;;;40.73;24.87;;;;;;;13.68;98.23;101232.69;5033268;28;20061;-75
2022/10/20 09:34:23;;;;;;;39.05;23.00;;;;;;;13.48;98.29;101198.59;5033575;28;20108;-77
2022/10/20 09:36:51;;;;;;;45.60;23.10;;;;;;;13.54;97.97;101219.84;5033253;28;20092;-76
2022/10/20 09:39:20;;;;;;;39.90;22.23;;;;;;;13.46;98.64;101226.38;5033197;28;20025;-79
2022/10/20 09:41:46;;;;;;;44.63;25.45;;;;;;;13.45;98.39;101232.50;5031693;28;20030;-78
2022/10/20 09:44:22;;;;;;;44.92;27.45;;;;;;;13.28;98.54;101214.69;5033294;28;20100;-77
2022/10/20 09:46:51;;;;;;;41.70;22.73;;;;;;;13.38;99.54;101240.81;5033757;28;20199;-80
2022/10/20 09:49:31;;;;;;;37.92;22.27;;;;;;;13.41;99.95;101245.81;5033131;28;20033;-80
2022/10/20 09:51:58;;;;;;;35.45;20.15;;;;;;;13.31;99.72;101229.19;5032814;28;20059;-83
2022/10/20 09:54:25;;;;;;;37.97;21.27;;;;;;;13.34;100.00;101250.56;5033283;28;20025;-82
2022/10/20 09:56:51;;;;;;;38.15;21.75;;;;;;;13.27;100.00;101233.75;5033103;28;20384;-84
2022/10/20 09:59:37;;;;;;;35.83;20.23;;;;;;;13.32;100.00;101239.47;4998258;28;20129;-84
2022/10/20 10:02:22;;;;;;;35.33;20.20;;;;;;;13.23;100.00;101213.31;5033015;28;20036;-80
2022/10/20 10:04:50;;;;;;;35.53;22.33;;;;;;;13.11;100.00;101194.22;5032983;28;20389;-80
2022/10/20 10:07:24;;;;;;;40.63;21.90;;;;;;;13.19;100.00;101210.94;5032516;28;20096;-80
2022/10/20 10:10:20;;;;;;;39.55;21.98;;;;;;;13.16;100.00;101218.06;5033344;28;20358;-80
2022/10/20 10:12:53;;;;;;;39.72;22.67;;;;;;;13.07;100.00;101222.09;5030062;28;20026;-80
2022/10/20 10:15:21;;;;;;;40.88;21.95;;;;;;;13.03;100.00;101222.41;5028847;28;20049;-79
2022/10/20 10:17:48;;;;;;;38.63;22.50;;;;;;;12.90;100.00;101206.84;5036917;28;20025;-80
2022/10/20 10:20:15;;;;;;;46.65;23.83;;;;;;;12.98;100.00;101222.75;5037164;28;20437;-78
2022/10/20 10:22:41;;;;;;;43.83;23.90;;;;;;;12.96;100.00;101234.13;5018577;28;20079;-79
2022/10/20 10:25:24;;;;;;;40.75;23.13;;;;;;;12.86;100.00;101215.75;5036867;28;20033;-78
2022/10/20 10:28:07;;;;;;;42.83;24.45;;;;;;;12.88;100.00;101214.75;5035703;28;20049;-77
2022/10/20 10:30:37;;;;;;;46.28;23.27;;;;;;;12.92;100.00;101216.19;5036952;28;20056;-76
2022/10/20 10:33:29;;;;;;;45.75;23.83;;;;;;;12.96;100.00;101208.19;5036749;28;20029;-77
2022/10/20 10:35:55;;;;;;;45.97;24.80;;;;;;;12.93;100.00;101209.25;5032674;28;20029;-80
2022/10/20 10:38:21;;;;;;;44.30;24.55;;;;;;;12.76;100.00;101179.25;5036830;28;20021;-77
2022/10/20 10:41:19;;;;;;;89.88;62.75;;;;;;;12.89;100.00;101195.66;5036573;28;20527;-77
2022/10/20 10:44:06;;;;;;;170.40;124.55;;;;;;;12.86;100.00;101193.25;5036660;28;20033;-78
2022/10/20 10:47:07;;;;;;;136.50;89.72;;;;;;;12.86;100.00;101184.66;5036664;28;20123;-77
2022/10/20 10:49:35;;;;;;;101.10;58.28;;;;;;;12.86;100.00;101187.25;5032661;28;20405;-79
2022/10/20 10:52:26;;;;;;;66.72;35.58;;;;;;;12.87;100.00;101183.72;5036111;28;20478;-77
2022/10/20 10:54:56;;;;;;;52.08;28.08;;;;;;;12.85;100.00;101193.38;5036378;28;20030;-78
2022/10/20 10:57:25;;;;;;;58.20;28.50;;;;;;;12.89;100.00;101198.25;5036405;28;20041;-78
2022/10/20 10:59:52;;;;;;;51.78;27.77;;;;;;;12.83;100.00;101183.09;5036038;28;20033;-78
2022/10/20 11:02:39;;;;;;;49.83;27.38;;;;;;;12.87;100.00;101189.72;5036480;28;20017;-78
2022/10/20 11:05:16;;;;;;;51.15;29.02;;;;;;;12.85;100.00;101190.78;5035831;28;20037;-78
2022/10/20 11:07:50;;;;;;;55.80;27.67;;;;;;;12.82;100.00;101190.97;5017979;28;20076;-78
2022/10/20 11:10:48;;;;;;;60.95;27.70;;;;;;;12.73;100.00;101179.47;5035922;28;20531;-76
2022/10/20 11:13:42;;;;;;;46.78;27.13;;;;;;;12.76;100.00;101179.25;5036058;28;20448;-75
2022/10/20 11:16:32;;;;;;;53.45;28.48;;;;;;;12.78;100.00;101177.41;5035898;28;20065;-77